Time;durP1;ratioP1;P1;durP2;ratioP2;P2;SDS_P1;SDS_P2;PMS_P1;PMS_P2;Temp;Humidity;BMP_temperature;BMP_pressure;BME280_temperature;BME280_humidity;BME280_pressure;Samples;Min_cycle;Max_cycle;Signal;HPM_P1;HPM_P2
2024/03/21 00:02:13;;;;;;;6.50;5.00;;;;;;;;;;6137297;23;20407;-88
2024/03/21 00:04:42;;;;;;;5.00;4.50;;;;;;;;;;6129390;23;20401;-88
2024/03/21 00:07:11;;;;;;;9.17;5.20;;;;;;;;;;6079175;23;20432;-86
2024/03/21 00:09:39;;;;;;;4.90;4.33;;;;;;;;;;6080431;23;20895;-87
2024/03/21 00:12:06;;;;;;;7.33;5.80;;;;;;;;;;6089716;23;20435;-89
2024/03/21 00:14:36;;;;;;;8.07;5.43;;;;;;;;;;6089550;23;20397;-87
2024/03/21 00:17:04;;;;;;;5.17;4.67;;;;;;;;;;6073952;23;20445;-86
2024/03/21 00:19:31;;;;;;;8.00;4.57;;;;;;;;;;6070591;23;20794;-88
2024/03/21 00:21:57;;;;;;;6.03;4.67;;;;;;;;;;6070627;23;20405;-85
2024/03/21 00:24:26;;;;;;;6.10;5.00;;;;;;;;;;6070414;23;20412;-87
2024/03/21 00:26:53;;;;;;;6.90;4.60;;;;;;;;;;6119043;23;20408;-88
2024/03/21 00:29:24;;;;;;;5.07;4.63;;;;;;;;;;6069819;23;20922;-90
2024/03/21 00:31:56;;;;;;;9.87;5.80;;;;;;;;;;6117325;23;20752;-88
2024/03/21 00:34:23;;;;;;;6.53;5.67;;;;;;;;;;6069952;23;20416;-87
2024/03/21 00:36:49;;;;;;;6.50;5.30;;;;;;;;;;6117502;23;20443;-88
2024/03/21 00:39:18;;;;;;;7.50;5.10;;;;;;;;;;6071372;23;20413;-89
2024/03/21 00:41:45;;;;;;;5.67;5.07;;;;;;;;;;6069907;23;20409;-87
2024/03/21 00:44:15;;;;;;;5.70;5.20;;;;;;;;;;6068750;23;20401;-88
2024/03/21 00:46:42;;;;;;;7.10;5.63;;;;;;;;;;6118674;23;20432;-87
2024/03/21 00:49:09;;;;;;;5.80;5.30;;;;;;;;;;6118245;23;20496;-89
2024/03/21 00:51:35;;;;;;;6.80;5.53;;;;;;;;;;6071007;23;20503;-87
2024/03/21 00:54:06;;;;;;;5.33;4.90;;;;;;;;;;6070371;23;20423;-87
2024/03/21 00:56:32;;;;;;;6.83;5.67;;;;;;;;;;6117986;23;20436;-87
2024/03/21 00:59:04;;;;;;;7.87;5.27;;;;;;;;;;6069108;23;20530;-87
2024/03/21 01:01:30;;;;;;;6.23;5.50;;;;;;;;;;6128107;23;20400;-87
2024/03/21 01:03:57;;;;;;;6.27;5.57;;;;;;;;;;6069001;23;20405;-88
2024/03/21 01:06:29;;;;;;;5.97;5.33;;;;;;;;;;6081272;23;20650;-90
2024/03/21 01:08:59;;;;;;;5.47;5.03;;;;;;;;;;6082249;23;20491;-89
2024/03/21 01:11:28;;;;;;;5.90;5.27;;;;;;;;;;6075240;23;20467;-88
2024/03/21 01:13:57;;;;;;;6.10;5.40;;;;;;;;;;6072790;23;20405;-88
2024/03/21 01:16:28;;;;;;;8.73;5.67;;;;;;;;;;6072833;23;20502;-87
2024/03/21 01:18:54;;;;;;;5.43;4.93;;;;;;;;;;6072022;23;20444;-87
2024/03/21 01:21:26;;;;;;;6.90;5.80;;;;;;;;;;6072419;23;20405;-87
2024/03/21 01:24:00;;;;;;;7.07;6.07;;;;;;;;;;6119605;23;20879;-89
2024/03/21 01:26:29;;;;;;;5.87;5.30;;;;;;;;;;6070622;23;20415;-88
2024/03/21 01:29:00;;;;;;;7.23;6.53;;;;;;;;;;6069866;23;20429;-86
2024/03/21 01:31:29;;;;;;;9.27;6.17;;;;;;;;;;6071650;23;20419;-87
2024/03/21 01:34:04;;;;;;;7.40;5.70;;;;;;;;;;6118662;23;20431;-88
2024/03/21 01:36:34;;;;;;;7.57;6.10;;;;;;;;;;6069911;23;21362;-86
2024/03/21 01:39:05;;;;;;;9.67;7.23;;;;;;;;;;6069886;23;20428;-88
2024/03/21 01:41:33;;;;;;;9.87;6.93;;;;;;;;;;6073863;23;20412;-85
2024/03/21 01:44:02;;;;;;;7.20;6.03;;;;;;;;;;6071653;23;20401;-89
2024/03/21 01:46:31;;;;;;;6.73;5.87;;;;;;;;;;6078339;23;20405;-87
2024/03/21 01:49:03;;;;;;;8.20;6.93;;;;;;;;;;6085917;23;20425;-89
2024/03/21 01:51:33;;;;;;;8.03;6.70;;;;;;;;;;6084092;23;20416;-90
2024/03/21 01:54:06;;;;;;;9.20;7.30;;;;;;;;;;6087399;23;20409;-88
2024/03/21 01:56:33;;;;;;;9.87;6.93;;;;;;;;;;6081317;23;20444;-88
2024/03/21 01:59:06;;;;;;;7.53;6.63;;;;;;;;;;6070100;23;20429;-87
2024/03/21 02:01:40;;;;;;;8.47;6.77;;;;;;;;;;6071427;23;20408;-86
2024/03/21 02:04:07;;;;;;;13.47;7.67;;;;;;;;;;6071820;23;20389;-90
2024/03/21 02:06:36;;;;;;;8.90;6.30;;;;;;;;;;6119976;23;20409;-88
2024/03/21 02:09:10;;;;;;;9.13;7.27;;;;;;;;;;6071711;23;20425;-86
2024/03/21 02:11:39;;;;;;;6.97;6.30;;;;;;;;;;6069247;23;20400;-88
2024/03/21 02:14:10;;;;;;;8.57;6.30;;;;;;;;;;6071219;23;20423;-88
2024/03/21 02:16:40;;;;;;;9.60;7.93;;;;;;;;;;6070989;23;20436;-87
2024/03/21 02:19:06;;;;;;;10.27;7.10;;;;;;;;;;6069668;23;20443;-88
2024/03/21 02:24:43;;;;;;;10.67;6.77;;;;;;;;;;6061958;23;20409;-90
2024/03/21 02:27:13;;;;;;;9.17;7.37;;;;;;;;;;6019013;23;20738;-90
2024/03/21 02:29:48;;;;;;;9.07;6.10;;;;;;;;;;6046859;23;20412;-89
2024/03/21 02:32:17;;;;;;;8.77;7.73;;;;;;;;;;6074790;23;20413;-87
2024/03/21 02:34:47;;;;;;;11.03;6.77;;;;;;;;;;6069337;23;20414;-88
2024/03/21 02:37:18;;;;;;;8.83;6.87;;;;;;;;;;6068543;23;20776;-88
2024/03/21 02:39:50;;;;;;;10.47;7.17;;;;;;;;;;6068095;23;21018;-85
2024/03/21 02:42:20;;;;;;;7.40;6.47;;;;;;;;;;6069378;23;20979;-89
2024/03/21 02:44:47;;;;;;;8.20;7.40;;;;;;;;;;6068665;23;20736;-89
2024/03/21 02:47:14;;;;;;;8.50;6.90;;;;;;;;;;6069277;23;20425;-86
2024/03/21 02:49:43;;;;;;;11.50;7.20;;;;;;;;;;6070411;23;20483;-87
2024/03/21 02:52:10;;;;;;;7.30;6.60;;;;;;;;;;6067484;23;20412;-86
2024/03/21 02:54:44;;;;;;;7.77;7.00;;;;;;;;;;6119914;23;20420;-86
2024/03/21 02:57:13;;;;;;;8.50;6.70;;;;;;;;;;6071186;23;20462;-86
2024/03/21 02:59:40;;;;;;;8.90;7.23;;;;;;;;;;6070435;23;20414;-86
2024/03/21 03:02:10;;;;;;;10.30;7.20;;;;;;;;;;6072020;23;20409;-88
2024/03/21 03:04:37;;;;;;;8.70;7.00;;;;;;;;;;6124465;23;20485;-88
2024/03/21 03:07:06;;;;;;;12.30;7.80;;;;;;;;;;6088737;23;20483;-88
2024/03/21 03:09:37;;;;;;;6.73;6.10;;;;;;;;;;6088437;23;20452;-90
2024/03/21 03:12:06;;;;;;;6.87;6.17;;;;;;;;;;6073875;23;20480;-85
2024/03/21 03:14:37;;;;;;;7.50;6.60;;;;;;;;;;6065173;23;20409;-86
2024/03/21 03:17:04;;;;;;;9.10;8.20;;;;;;;;;;6066629;23;20831;-88
2024/03/21 03:19:44;;;;;;;8.10;6.70;;;;;;;;;;6070779;23;20417;-86
2024/03/21 03:22:16;;;;;;;11.77;7.17;;;;;;;;;;6071294;23;20750;-86
2024/03/21 03:24:45;;;;;;;11.10;7.07;;;;;;;;;;6070639;23;20467;-87
2024/03/21 03:27:12;;;;;;;8.53;7.20;;;;;;;;;;6068497;23;20780;-88
2024/03/21 03:29:39;;;;;;;8.17;6.50;;;;;;;;;;6068532;23;20412;-89
2024/03/21 03:32:15;;;;;;;8.03;7.17;;;;;;;;;;6072082;23;20416;-86
2024/03/21 03:37:49;;;;;;;7.47;6.70;;;;;;;;;;6118458;23;20457;-88
2024/03/21 03:40:27;;;;;;;9.10;6.63;;;;;;;;;;6071165;23;20479;-86
2024/03/21 03:42:58;;;;;;;7.77;6.30;;;;;;;;;;6072191;23;20882;-88
2024/03/21 03:45:27;;;;;;;10.47;7.17;;;;;;;;;;6071536;23;20401;-91
2024/03/21 03:47:56;;;;;;;9.67;8.47;;;;;;;;;;6070786;23;20428;-87
2024/03/21 03:50:25;;;;;;;17.93;12.60;;;;;;;;;;6072207;23;20808;-87
2024/03/21 03:52:55;;;;;;;17.90;13.67;;;;;;;;;;6075956;23;20499;-88
2024/03/21 03:55:24;;;;;;;19.50;15.10;;;;;;;;;;6099136;23;20408;-85
2024/03/21 03:57:52;;;;;;;20.17;14.97;;;;;;;;;;6073898;23;20444;-85
2024/03/21 04:00:30;;;;;;;21.33;16.60;;;;;;;;;;6075701;23;20474;-86
2024/03/21 04:03:09;;;;;;;22.90;16.17;;;;;;;;;;6076120;23;20438;-88
2024/03/21 04:05:38;;;;;;;19.67;17.43;;;;;;;;;;6076332;23;20408;-88
2024/03/21 04:08:11;;;;;;;19.93;16.63;;;;;;;;;;6076802;23;20428;-86
2024/03/21 04:10:49;;;;;;;20.50;17.87;;;;;;;;;;6078365;23;20407;-87
2024/03/21 04:13:21;;;;;;;21.73;17.97;;;;;;;;;;6077871;23;20758;-87
2024/03/21 04:15:57;;;;;;;26.67;19.13;;;;;;;;;;6074325;23;20860;-85
2024/03/21 04:18:28;;;;;;;20.53;18.07;;;;;;;;;;6073300;23;20455;-86
2024/03/21 04:21:18;;;;;;;23.43;18.40;;;;;;;;;;6105596;23;20407;-86
2024/03/21 04:24:08;;;;;;;22.17;19.00;;;;;;;;;;6072612;23;20805;-85
2024/03/21 04:26:35;;;;;;;26.83;18.87;;;;;;;;;;6076753;23;20408;-88
2024/03/21 04:29:15;;;;;;;;;;;;;;;;;;;;;
2024/03/21 04:31:45;;;;;;;25.20;20.00;;;;;;;;;;6103946;23;20935;-87
2024/03/21 04:34:16;;;;;;;24.40;19.97;;;;;;;;;;6077628;23;20415;-87
2024/03/21 04:36:48;;;;;;;22.50;19.03;;;;;;;;;;6128281;23;20436;-87
2024/03/21 04:39:16;;;;;;;25.70;20.43;;;;;;;;;;6133803;23;20453;-87
2024/03/21 04:41:49;;;;;;;26.27;19.90;;;;;;;;;;6091440;23;20404;-88
2024/03/21 04:44:23;;;;;;;24.50;20.10;;;;;;;;;;6094207;23;20412;-88
2024/03/21 04:46:53;;;;;;;25.70;19.77;;;;;;;;;;6097620;23;20455;-88
2024/03/21 04:49:28;;;;;;;26.67;21.87;;;;;;;;;;6100089;23;20394;-87
2024/03/21 04:52:00;;;;;;;26.40;21.30;;;;;;;;;;6096655;23;20410;-88
2024/03/21 04:54:42;;;;;;;26.37;21.40;;;;;;;;;;6090815;23;20402;-87
2024/03/21 04:57:11;;;;;;;28.87;22.00;;;;;;;;;;6092728;23;20431;-85
2024/03/21 04:59:40;;;;;;;30.50;22.40;;;;;;;;;;6082465;23;20404;-82
2024/03/21 05:02:10;;;;;;;29.67;22.03;;;;;;;;;;6081189;23;20408;-87
2024/03/21 05:04:36;;;;;;;31.27;21.80;;;;;;;;;;6080207;23;20400;-84
2024/03/21 05:10:49;;;;;;;30.70;23.17;;;;;;;;;;6059224;23;20394;-90
2024/03/21 05:13:17;;;;;;;28.67;21.03;;;;;;;;;;6047740;23;20460;-89
2024/03/21 05:15:51;;;;;;;29.03;22.00;;;;;;;;;;6100690;23;20452;-88
2024/03/21 05:18:20;;;;;;;29.53;22.10;;;;;;;;;;6093039;23;20475;-88
2024/03/21 05:20:59;;;;;;;30.97;21.30;;;;;;;;;;6100001;23;20440;-89
2024/03/21 05:23:28;;;;;;;30.90;23.23;;;;;;;;;;6123997;23;20451;-90
2024/03/21 05:26:01;;;;;;;27.53;21.63;;;;;;;;;;6076357;23;20456;-90
2024/03/21 05:28:32;;;;;;;27.63;21.60;;;;;;;;;;6066170;23;20492;-88
2024/03/21 05:31:17;;;;;;;29.67;22.40;;;;;;;;;;6041667;23;20493;-90
2024/03/21 05:33:47;;;;;;;27.00;21.63;;;;;;;;;;6041266;23;20456;-89
2024/03/21 05:36:40;;;;;;;30.27;22.60;;;;;;;;;;5977960;23;20527;-87
2024/03/21 05:39:09;;;;;;;30.27;20.50;;;;;;;;;;6003267;23;20494;-86
2024/03/21 05:41:39;;;;;;;28.40;20.60;;;;;;;;;;6024518;23;20421;-87
2024/03/21 05:44:13;;;;;;;26.03;20.40;;;;;;;;;;6027301;23;20408;-85
2024/03/21 05:46:58;;;;;;;34.60;22.63;;;;;;;;;;6025921;23;20402;-84
2024/03/21 05:49:30;;;;;;;27.87;20.33;;;;;;;;;;6026232;23;20440;-87
2024/03/21 05:52:09;;;;;;;31.13;20.70;;;;;;;;;;6030222;23;20408;-86
2024/03/21 05:55:05;;;;;;;28.70;21.77;;;;;;;;;;6006879;23;20445;-88
2024/03/21 05:57:48;;;;;;;26.80;20.70;;;;;;;;;;6044467;23;20988;-87
2024/03/21 06:00:17;;;;;;;30.13;20.40;;;;;;;;;;6029774;23;20760;-88
2024/03/21 06:02:54;;;;;;;27.63;20.30;;;;;;;;;;6039839;23;20472;-90
2024/03/21 06:05:28;;;;;;;31.03;22.70;;;;;;;;;;6062051;23;20464;-86
2024/03/21 06:08:10;;;;;;;29.93;21.60;;;;;;;;;;6021737;23;20464;-85
2024/03/21 06:10:45;;;;;;;27.73;20.23;;;;;;;;;;6069129;23;21366;-85
2024/03/21 06:13:14;;;;;;;26.27;20.43;;;;;;;;;;6068206;23;20417;-84
2024/03/21 06:15:49;;;;;;;27.10;20.63;;;;;;;;;;6066341;23;20471;-85
2024/03/21 06:18:25;;;;;;;25.50;19.50;;;;;;;;;;6027903;23;20910;-86
2024/03/21 06:24:04;;;;;;;26.30;19.63;;;;;;;;;;6090037;23;20397;-86
2024/03/21 06:26:36;;;;;;;28.27;20.50;;;;;;;;;;6042407;23;20504;-87
2024/03/21 06:29:12;;;;;;;31.50;20.50;;;;;;;;;;6038808;23;20433;-85
2024/03/21 06:31:58;;;;;;;32.10;20.50;;;;;;;;;;6040353;23;20404;-87
2024/03/21 06:34:45;;;;;;;;;;;;;;;;;;;;;
2024/03/21 06:37:22;;;;;;;30.63;21.30;;;;;;;;;;6094976;23;20975;-87
2024/03/21 06:39:55;;;;;;;28.93;22.17;;;;;;;;;;6054329;23;20409;-86
2024/03/21 06:42:40;;;;;;;27.87;20.33;;;;;;;;;;6079450;23;20500;-90
2024/03/21 06:45:10;;;;;;;26.27;20.80;;;;;;;;;;6056852;23;20402;-89
2024/03/21 06:48:15;;;;;;;25.20;19.50;;;;;;;;;;6051196;23;20440;-86
2024/03/21 06:51:00;;;;;;;24.90;19.33;;;;;;;;;;6046061;23;20524;-87
2024/03/21 06:53:37;;;;;;;25.00;18.77;;;;;;;;;;6048759;23;20409;-87
2024/03/21 06:56:13;;;;;;;26.33;18.53;;;;;;;;;;6044775;23;20413;-87
2024/03/21 06:58:49;;;;;;;23.47;18.20;;;;;;;;;;6045843;23;20418;-88
2024/03/21 07:01:19;;;;;;;22.20;17.13;;;;;;;;;;6042188;23;20409;-85
2024/03/21 07:03:57;;;;;;;24.03;17.20;;;;;;;;;;6041742;23;20406;-86
2024/03/21 07:06:30;;;;;;;24.33;17.63;;;;;;;;;;6048326;23;20493;-86
2024/03/21 07:09:12;;;;;;;24.93;18.20;;;;;;;;;;6044341;23;20515;-86
2024/03/21 07:11:54;;;;;;;;;;;;;;;;;;;;;
2024/03/21 07:14:42;;;;;;;21.53;16.77;;;;;;;;;;6064395;23;20441;-89
2024/03/21 07:17:23;;;;;;;22.37;16.30;;;;;;;;;;6044492;23;20493;-87
2024/03/21 07:19:56;;;;;;;23.70;16.80;;;;;;;;;;6043634;23;20416;-86
2024/03/21 07:22:35;;;;;;;23.47;16.73;;;;;;;;;;6042323;23;20398;-85
2024/03/21 07:25:10;;;;;;;22.60;17.80;;;;;;;;;;6037639;23;20512;-88
2024/03/21 07:27:44;;;;;;;26.37;17.30;;;;;;;;;;6040394;23;20492;-87
2024/03/21 07:30:47;;;;;;;21.60;16.67;;;;;;;;;;6062374;23;20437;-88
2024/03/21 07:33:24;;;;;;;;;;;;;;;;;;;;;
2024/03/21 07:36:10;;;;;;;25.63;17.63;;;;;;;;;;6089300;23;20413;-86
2024/03/21 07:38:58;;;;;;;24.20;17.97;;;;;;;;;;6044393;23;20429;-86
2024/03/21 07:41:37;;;;;;;20.73;17.80;;;;;;;;;;6041815;23;20413;-84
2024/03/21 07:44:20;;;;;;;29.57;17.37;;;;;;;;;;6044410;23;20421;-88
2024/03/21 07:47:13;;;;;;;24.30;17.83;;;;;;;;;;6050812;23;20405;-87
2024/03/21 07:49:49;;;;;;;24.03;17.40;;;;;;;;;;6049174;23;20423;-85
2024/03/21 07:52:18;;;;;;;24.77;18.43;;;;;;;;;;6048609;23;20414;-89
2024/03/21 07:54:53;;;;;;;19.77;16.73;;;;;;;;;;6048964;23;20420;-90
2024/03/21 07:57:36;;;;;;;;;;;;;;;;;;;;;
2024/03/21 08:00:21;;;;;;;;;;;;;;;;;;;;;
2024/03/21 08:02:51;;;;;;;24.50;18.63;;;;;;;;;;6093027;23;20401;-88
2024/03/21 08:05:17;;;;;;;22.20;18.37;;;;;;;;;;6048268;23;20421;-86
2024/03/21 08:07:53;;;;;;;24.30;18.40;;;;;;;;;;6042694;23;20439;-88
2024/03/21 08:10:30;;;;;;;21.90;18.10;;;;;;;;;;6026406;23;20408;-85
2024/03/21 08:13:07;;;;;;;25.33;21.57;;;;;;;;;;6027506;23;20899;-84
2024/03/21 08:15:45;;;;;;;24.87;18.43;;;;;;;;;;6030849;23;20397;-89
2024/03/21 08:18:15;;;;;;;25.33;18.87;;;;;;;;;;6058305;23;20467;-91
2024/03/21 08:20:53;;;;;;;23.73;18.27;;;;;;;;;;6035660;23;20420;-88
2024/03/21 08:23:38;;;;;;;;;;;;;;;;;;;;;
2024/03/21 08:26:31;;;;;;;27.40;20.07;;;;;;;;;;6050123;23;20505;-87
2024/03/21 08:29:05;;;;;;;25.87;19.83;;;;;;;;;;6031076;23;20788;-86
2024/03/21 08:31:55;;;;;;;24.37;19.10;;;;;;;;;;6008840;23;20700;-87
2024/03/21 08:34:37;;;;;;;24.87;19.47;;;;;;;;;;6027776;23;20414;-86
2024/03/21 08:37:42;;;;;;;26.80;19.47;;;;;;;;;;6030120;23;20527;-87
2024/03/21 08:40:31;;;;;;;28.57;19.87;;;;;;;;;;6026970;23;20402;-87
2024/03/21 08:43:05;;;;;;;25.90;18.80;;;;;;;;;;6028775;23;20397;-87
2024/03/21 08:45:50;;;;;;;22.53;17.67;;;;;;;;;;6022914;23;20408;-87
2024/03/21 08:48:28;;;;;;;26.17;21.53;;;;;;;;;;6038833;23;20515;-87
2024/03/21 08:51:29;;;;;;;23.83;19.00;;;;;;;;;;6031067;23;20413;-87
2024/03/21 08:54:03;;;;;;;28.50;19.47;;;;;;;;;;6057042;23;20398;-85
2024/03/21 08:57:05;;;;;;;23.67;17.53;;;;;;;;;;6039921;23;20437;-88
2024/03/21 08:59:39;;;;;;;26.93;19.57;;;;;;;;;;6037809;23;20413;-86
2024/03/21 09:02:14;;;;;;;24.80;19.03;;;;;;;;;;6031096;23;20414;-88
2024/03/21 09:04:42;;;;;;;21.00;16.87;;;;;;;;;;6031773;23;20415;-84
2024/03/21 09:07:11;;;;;;;24.90;17.80;;;;;;;;;;6027968;23;20421;-87
2024/03/21 09:09:47;;;;;;;22.53;17.73;;;;;;;;;;6024915;23;20450;-88
2024/03/21 09:12:28;;;;;;;22.10;16.23;;;;;;;;;;6023519;23;20410;-87
2024/03/21 09:15:21;;;;;;;16.93;14.10;;;;;;;;;;6051382;23;20397;-90
2024/03/21 09:17:54;;;;;;;18.37;14.23;;;;;;;;;;6039100;23;20452;-88
2024/03/21 09:20:33;;;;;;;18.23;15.73;;;;;;;;;;6039858;23;20428;-90
2024/03/21 09:23:09;;;;;;;16.50;13.57;;;;;;;;;;6039159;23;20409;-87
2024/03/21 09:25:58;;;;;;;15.03;12.07;;;;;;;;;;6037801;23;20428;-85
2024/03/21 09:28:39;;;;;;;16.17;13.10;;;;;;;;;;6060130;23;20433;-90
2024/03/21 09:31:15;;;;;;;17.73;12.47;;;;;;;;;;6026976;23;20406;-88
2024/03/21 09:34:15;;;;;;;15.67;12.33;;;;;;;;;;6033435;23;20413;-90
2024/03/21 09:37:14;;;;;;;16.23;13.17;;;;;;;;;;6059254;23;20442;-88
2024/03/21 09:43:12;;;;;;;13.50;11.57;;;;;;;;;;6078241;23;20398;-86
2024/03/21 09:45:59;;;;;;;14.50;11.53;;;;;;;;;;6035074;23;20460;-87
2024/03/21 09:48:39;;;;;;;14.10;11.57;;;;;;;;;;6031440;23;20482;-88
2024/03/21 09:51:21;;;;;;;15.27;10.87;;;;;;;;;;6026363;23;21351;-88
2024/03/21 09:54:16;;;;;;;16.50;12.40;;;;;;;;;;6059261;23;20425;-87
2024/03/21 09:56:53;;;;;;;14.57;11.40;;;;;;;;;;6056150;23;20437;-89
2024/03/21 09:59:21;;;;;;;15.57;11.70;;;;;;;;;;6032463;23;20405;-87
2024/03/21 10:02:03;;;;;;;15.70;12.67;;;;;;;;;;6034650;23;20398;-84
2024/03/21 10:04:55;;;;;;;16.10;13.20;;;;;;;;;;6031232;23;20413;-86
2024/03/21 10:08:06;;;;;;;15.93;11.60;;;;;;;;;;6028705;23;20430;-85
2024/03/21 10:10:35;;;;;;;11.17;9.37;;;;;;;;;;6077248;23;20419;-87
2024/03/21 10:13:08;;;;;;;11.77;10.47;;;;;;;;;;6031785;23;20418;-87
2024/03/21 10:15:42;;;;;;;13.70;12.20;;;;;;;;;;6020100;23;20409;-87
2024/03/21 10:18:29;;;;;;;13.67;11.17;;;;;;;;;;6031192;23;20459;-86
2024/03/21 10:21:00;;;;;;;12.10;10.20;;;;;;;;;;6027811;23;20416;-88
2024/03/21 10:23:27;;;;;;;9.90;8.23;;;;;;;;;;6026167;23;20409;-87
2024/03/21 10:26:27;;;;;;;9.20;7.83;;;;;;;;;;6036325;23;20412;-88
2024/03/21 10:31:59;;;;;;;8.73;7.83;;;;;;;;;;6091823;23;20444;-86
2024/03/21 10:34:30;;;;;;;9.70;8.30;;;;;;;;;;6067747;23;20393;-88
2024/03/21 10:37:03;;;;;;;15.43;8.60;;;;;;;;;;6063733;23;20440;-87
2024/03/21 10:39:38;;;;;;;10.97;8.87;;;;;;;;;;6086174;23;20422;-88
2024/03/21 10:42:11;;;;;;;10.30;8.70;;;;;;;;;;6057676;23;20400;-87
2024/03/21 10:44:47;;;;;;;9.67;8.67;;;;;;;;;;6059290;23;20401;-88
2024/03/21 10:47:37;;;;;;;9.90;7.90;;;;;;;;;;6039230;23;20484;-86
2024/03/21 10:50:24;;;;;;;10.77;9.27;;;;;;;;;;6108825;23;20446;-87
2024/03/21 10:53:21;;;;;;;10.90;9.00;;;;;;;;;;6086610;23;20388;-87
2024/03/21 10:55:57;;;;;;;11.20;9.77;;;;;;;;;;6034576;23;20417;-87
2024/03/21 10:58:39;;;;;;;15.30;10.17;;;;;;;;;;6058328;23;20448;-86
2024/03/21 11:01:07;;;;;;;10.70;9.60;;;;;;;;;;6063567;23;20415;-87
2024/03/21 11:04:18;;;;;;;10.40;9.30;;;;;;;;;;6111973;23;20373;-87
2024/03/21 11:06:47;;;;;;;8.50;7.50;;;;;;;;;;6061002;23;20409;-88
2024/03/21 11:09:36;;;;;;;9.23;7.60;;;;;;;;;;6088456;23;20391;-89
2024/03/21 11:12:17;;;;;;;8.10;7.30;;;;;;;;;;6078204;23;21026;-86
2024/03/21 11:14:48;;;;;;;14.10;11.50;;;;;;;;;;6057935;23;20440;-86
2024/03/21 11:17:43;;;;;;;7.77;6.83;;;;;;;;;;6089728;23;20510;-87
2024/03/21 11:20:15;;;;;;;7.70;6.90;;;;;;;;;;6061035;23;20485;-87
2024/03/21 11:22:54;;;;;;;7.60;6.37;;;;;;;;;;6062985;23;20483;-86
2024/03/21 11:25:24;;;;;;;7.83;7.03;;;;;;;;;;6062098;23;20401;-87
2024/03/21 11:27:54;;;;;;;6.90;6.10;;;;;;;;;;6061955;23;20447;-88
2024/03/21 11:30:28;;;;;;;7.00;5.73;;;;;;;;;;6051206;23;20416;-89
2024/03/21 11:33:09;;;;;;;6.20;5.60;;;;;;;;;;6061706;23;20427;-86
2024/03/21 11:35:41;;;;;;;7.20;6.00;;;;;;;;;;6068634;23;20411;-85
2024/03/21 11:38:29;;;;;;;9.37;5.60;;;;;;;;;;6027178;23;20449;-90
2024/03/21 11:41:13;;;;;;;6.07;5.40;;;;;;;;;;6090237;23;20529;-88
2024/03/21 11:43:53;;;;;;;6.23;5.60;;;;;;;;;;6067355;23;20477;-89
2024/03/21 11:46:42;;;;;;;;;;;;;;;;;;;;;
2024/03/21 11:49:31;;;;;;;5.93;5.43;;;;;;;;;;6057604;23;20432;-84
2024/03/21 11:52:06;;;;;;;5.10;4.50;;;;;;;;;;6103044;23;20390;-88
2024/03/21 11:54:51;;;;;;;5.97;5.40;;;;;;;;;;6047042;23;20456;-89
2024/03/21 11:57:30;;;;;;;5.63;5.13;;;;;;;;;;6067807;23;20514;-90
2024/03/21 12:00:30;;;;;;;6.03;5.40;;;;;;;;;;6022078;23;20416;-88
2024/03/21 12:06:18;;;;;;;6.53;5.93;;;;;;;;;;6065708;23;20401;-87
2024/03/21 12:09:34;;;;;;;7.50;5.33;;;;;;;;;;6084154;23;20428;-89
2024/03/21 12:12:02;;;;;;;6.07;5.47;;;;;;;;;;6057713;23;20419;-86
2024/03/21 12:14:49;;;;;;;5.80;5.13;;;;;;;;;;6064096;23;20393;-91
2024/03/21 12:17:23;;;;;;;5.57;5.07;;;;;;;;;;6035938;23;20453;-88
2024/03/21 12:25:51;;;;;;;7.10;6.40;;;;;;;;;;6103218;23;20456;-90
2024/03/21 12:28:37;;;;;;;8.40;7.60;;;;;;;;;;6071865;23;20440;-89
2024/03/21 12:34:17;;;;;;;7.37;6.77;;;;;;;;;;6118226;23;20432;-91
2024/03/21 12:37:06;;;;;;;9.70;8.40;;;;;;;;;;6099104;23;20511;-89
2024/03/21 12:42:47;;;;;;;9.33;6.27;;;;;;;;;;6120093;23;20416;-85
2024/03/21 12:45:59;;;;;;;;;;;;;;;;;;;;;
2024/03/21 12:49:53;;;;;;;9.30;8.40;;;;;;;;;;6005667;24;20396;-88
2024/03/21 12:52:43;;;;;;;9.70;8.70;;;;;;;;;;6023570;23;20423;-88
2024/03/21 12:55:23;;;;;;;7.83;7.03;;;;;;;;;;6081637;23;20410;-88
2024/03/21 12:58:07;;;;;;;8.23;7.37;;;;;;;;;;6082106;23;20445;-88
2024/03/21 13:00:51;;;;;;;8.60;7.80;;;;;;;;;;6080138;23;20413;-89
2024/03/21 13:07:13;;;;;;;;;;;;;;;;;;;;;
2024/03/21 13:09:53;;;;;;;11.30;9.83;;;;;;;;;;6029440;23;20675;-87
2024/03/21 13:12:42;;;;;;;11.30;9.47;;;;;;;;;;6087686;23;20397;-85
2024/03/21 13:15:23;;;;;;;9.93;8.90;;;;;;;;;;6088299;23;20536;-89
2024/03/21 13:18:08;;;;;;;11.33;10.17;;;;;;;;;;6087945;23;20544;-91
2024/03/21 13:21:39;;;;;;;8.40;7.50;;;;;;;;;;6079011;23;20529;-88
2024/03/21 13:23:46;;;;;;;8.23;7.40;;;;;;;;;;6072710;23;20402;-86
2024/03/21 13:26:25;;;;;;;7.80;7.10;;;;;;;;;;6103606;23;20405;-91
2024/03/21 13:29:27;;;;;;;;;;;;;;;;;;;;;
2024/03/21 13:32:58;;;;;;;8.33;7.27;;;;;;;;;;6079209;23;20400;-90
2024/03/21 13:36:26;;;;;;;10.87;6.87;;;;;;;;;;6034242;23;20596;-89
2024/03/21 13:39:02;;;;;;;7.30;6.60;;;;;;;;;;6066327;23;20432;-87
2024/03/21 13:42:18;;;;;;;9.20;7.70;;;;;;;;;;6076535;23;20397;-88
2024/03/21 13:48:25;;;;;;;10.67;8.93;;;;;;;;;;6061971;23;20422;-88
2024/03/21 13:51:24;;;;;;;10.10;9.10;;;;;;;;;;6074785;23;20404;-90
2024/03/21 13:53:56;;;;;;;11.53;10.33;;;;;;;;;;6076962;23;21228;-89
2024/03/21 13:56:49;;;;;;;10.70;9.60;;;;;;;;;;6092398;23;20456;-85
2024/03/21 13:59:32;;;;;;;9.30;8.23;;;;;;;;;;6076870;23;20415;-87
2024/03/21 14:02:30;;;;;;;11.07;8.37;;;;;;;;;;6076823;23;20397;-89
2024/03/21 14:05:23;;;;;;;8.80;7.90;;;;;;;;;;6082785;23;20433;-85
2024/03/21 14:08:21;;;;;;;11.83;10.40;;;;;;;;;;6086890;23;20425;-87
2024/03/21 14:14:03;;;;;;;9.07;8.20;;;;;;;;;;6071177;23;20592;-86
2024/03/21 14:17:04;;;;;;;10.90;8.60;;;;;;;;;;6076506;23;20453;-89
2024/03/21 14:19:43;;;;;;;11.30;9.30;;;;;;;;;;6020401;23;20414;-90
2024/03/21 14:22:43;;;;;;;14.10;11.57;;;;;;;;;;6089305;23;20398;-87
2024/03/21 14:25:48;;;;;;;11.80;9.63;;;;;;;;;;6075960;23;20412;-86
2024/03/21 14:31:35;;;;;;;;;;;;;;;;;;;;;
2024/03/21 14:37:15;;;;;;;11.90;9.93;;;;;;;;;;6063782;23;20453;-86
2024/03/21 14:39:43;;;;;;;15.33;10.57;;;;;;;;;;6047832;23;20411;-87
2024/03/21 14:42:30;;;;;;;17.00;12.83;;;;;;;;;;6071689;23;20472;-86
2024/03/21 14:45:08;;;;;;;12.07;10.53;;;;;;;;;;6075442;23;20420;-89
2024/03/21 14:47:40;;;;;;;11.50;8.67;;;;;;;;;;6080076;23;20457;-90
2024/03/21 14:50:10;;;;;;;11.07;9.00;;;;;;;;;;6064765;23;20416;-91
2024/03/21 14:52:41;;;;;;;14.37;10.33;;;;;;;;;;6077251;23;20720;-85
2024/03/21 14:55:14;;;;;;;12.47;10.67;;;;;;;;;;6073300;23;20400;-87
2024/03/21 14:57:45;;;;;;;11.33;9.30;;;;;;;;;;6070219;23;20464;-87
2024/03/21 15:00:19;;;;;;;13.20;10.40;;;;;;;;;;6022009;23;20406;-85
2024/03/21 15:02:46;;;;;;;11.97;9.70;;;;;;;;;;6022631;23;21219;-88
2024/03/21 15:05:17;;;;;;;10.90;9.80;;;;;;;;;;6024998;23;20896;-91
2024/03/21 15:07:50;;;;;;;11.33;9.40;;;;;;;;;;6024020;23;20762;-85
2024/03/21 15:10:46;;;;;;;11.93;10.17;;;;;;;;;;6021933;23;20413;-87
2024/03/21 15:13:20;;;;;;;12.87;9.90;;;;;;;;;;6025330;23;20410;-87
2024/03/21 15:15:49;;;;;;;15.27;9.73;;;;;;;;;;6022871;23;20794;-86
2024/03/21 15:18:22;;;;;;;9.67;8.67;;;;;;;;;;6021826;23;20449;-84
2024/03/21 15:20:56;;;;;;;11.10;10.00;;;;;;;;;;6023742;23;20420;-86
2024/03/21 15:23:23;;;;;;;14.10;10.40;;;;;;;;;;6023762;23;20405;-87
2024/03/21 15:26:01;;;;;;;14.43;10.27;;;;;;;;;;6026418;23;20393;-87
2024/03/21 15:28:34;;;;;;;12.43;10.53;;;;;;;;;;6026029;23;20425;-85
2024/03/21 15:31:11;;;;;;;11.60;9.63;;;;;;;;;;6026362;23;20460;-86
2024/03/21 15:33:47;;;;;;;9.83;8.73;;;;;;;;;;6023898;23;20406;-86
2024/03/21 15:36:22;;;;;;;10.27;9.27;;;;;;;;;;6025822;23;20791;-87
2024/03/21 15:38:57;;;;;;;11.77;8.70;;;;;;;;;;6028591;23;20425;-88
2024/03/21 15:41:30;;;;;;;10.07;8.73;;;;;;;;;;6024666;23;20815;-89
2024/03/21 15:44:08;;;;;;;10.20;8.67;;;;;;;;;;6028562;23;20426;-86
2024/03/21 15:47:00;;;;;;;13.10;9.80;;;;;;;;;;6029748;23;20414;-86
2024/03/21 15:49:46;;;;;;;8.60;7.60;;;;;;;;;;6023619;23;20418;-84
2024/03/21 15:52:33;;;;;;;10.33;9.07;;;;;;;;;;6053691;23;20442;-89
2024/03/21 15:55:20;;;;;;;13.53;8.83;;;;;;;;;;6065083;23;20421;-89
2024/03/21 15:57:59;;;;;;;10.50;9.40;;;;;;;;;;6042085;23;20563;-89
2024/03/21 16:00:29;;;;;;;11.83;8.37;;;;;;;;;;6041409;23;20501;-89
2024/03/21 16:03:03;;;;;;;9.93;8.60;;;;;;;;;;6063480;23;20484;-89
2024/03/21 16:05:36;;;;;;;9.97;8.07;;;;;;;;;;6041173;23;20473;-90
2024/03/21 16:08:12;;;;;;;10.03;8.87;;;;;;;;;;6053456;23;20563;-89
2024/03/21 16:10:47;;;;;;;8.63;7.47;;;;;;;;;;6069731;23;20480;-91
2024/03/21 16:13:34;;;;;;;10.10;8.63;;;;;;;;;;6066914;23;20456;-90
2024/03/21 16:16:06;;;;;;;9.87;8.80;;;;;;;;;;6089963;23;20484;-88
2024/03/21 16:18:36;;;;;;;9.97;8.57;;;;;;;;;;6058631;23;20461;-92
2024/03/21 16:21:20;;;;;;;11.13;8.80;;;;;;;;;;6043202;23;20469;-86
2024/03/21 16:24:11;;;;;;;9.20;7.97;;;;;;;;;;6019311;23;20402;-88
2024/03/21 16:30:07;;;;;;;11.10;8.70;;;;;;;;;;6070465;23;20397;-89
2024/03/21 16:33:02;;;;;;;11.07;9.37;;;;;;;;;;6071523;23;20920;-90
2024/03/21 16:35:47;;;;;;;10.00;7.90;;;;;;;;;;6013341;23;20891;-86
2024/03/21 16:38:25;;;;;;;15.43;12.80;;;;;;;;;;6019847;23;20449;-85